createdAt,value
2018-09-17T00:02:42.453Z,0
2018-09-17T00:02:54.750Z,0
2018-09-17T00:03:54.753Z,0
2018-09-17T00:04:54.728Z,0
2018-09-17T00:05:54.690Z,0
2018-09-17T00:06:54.735Z,0
2018-09-17T00:07:55.046Z,0
2018-09-17T00:08:54.721Z,0
2018-09-17T00:09:55.002Z,0
2018-09-17T00:10:54.793Z,0
2018-09-17T00:11:54.767Z,0
2018-09-17T00:12:54.749Z,0
2018-09-17T00:13:55.059Z,0
2018-09-17T00:14:54.731Z,0
2018-09-17T00:15:54.797Z,0
2018-09-17T00:16:54.837Z,0
2018-09-17T00:17:54.772Z,0
2018-09-17T00:18:54.791Z,0
2018-09-17T00:19:55.098Z,0
2018-09-17T00:20:54.805Z,0
2018-09-17T00:21:54.770Z,0
2018-09-17T00:22:54.735Z,0
2018-09-17T00:23:54.710Z,0
2018-09-17T00:24:54.764Z,0
2018-09-17T00:25:55.141Z,0
2018-09-17T00:26:54.774Z,0
2018-09-17T00:27:54.810Z,0
2018-09-17T00:28:54.801Z,0
2018-09-17T00:29:54.825Z,0
2018-09-17T00:30:54.838Z,0
2018-09-17T00:31:56.098Z,0
2018-09-17T00:32:54.800Z,0
2018-09-17T00:44:41.280Z,0
2018-09-17T00:44:53.736Z,0
2018-09-17T00:45:53.652Z,0
2018-09-17T00:46:53.658Z,0
2018-09-17T00:47:53.689Z,0
2018-09-17T00:48:53.639Z,0
2018-09-17T00:49:53.652Z,0
2018-09-17T00:50:53.698Z,0
2018-09-17T00:51:53.667Z,0
2018-09-17T00:52:53.671Z,0
2018-09-17T00:53:54.085Z,0
2018-09-17T00:54:53.646Z,0
2018-09-17T00:55:53.670Z,0
2018-09-17T00:56:53.697Z,0
2018-09-17T00:57:53.864Z,0
2018-09-17T00:58:53.652Z,0
2018-09-17T00:59:54.055Z,0
2018-09-17T01:00:53.669Z,0
2018-09-17T01:01:53.703Z,0
2018-09-17T01:02:54.319Z,0
2018-09-17T01:03:53.746Z,0
2018-09-17T01:04:53.793Z,0
2018-09-17T01:05:53.737Z,0
2018-09-17T01:06:53.726Z,0
2018-09-17T01:07:53.697Z,0
2018-09-17T01:08:53.976Z,0
2018-09-17T01:09:53.718Z,0
2018-09-17T01:10:53.696Z,0
2018-09-17T01:11:53.777Z,0
2018-09-17T01:12:53.796Z,0
2018-09-17T01:13:53.743Z,0
2018-09-17T01:14:53.761Z,0
2018-09-17T01:15:54.301Z,0
2018-09-17T01:16:54.066Z,0
2018-09-17T01:17:54.075Z,0
2018-09-17T01:18:54.118Z,0
2018-09-17T01:19:54.084Z,0
2018-09-17T01:20:53.752Z,0
2018-09-17T01:21:53.767Z,0
2018-09-17T01:22:53.765Z,0
2018-09-17T01:23:54.082Z,0
2018-09-17T01:24:53.792Z,0
2018-09-17T01:25:53.774Z,0
2018-09-17T01:26:53.721Z,0
2018-09-17T01:27:53.787Z,0
2018-09-17T01:28:53.755Z,0
2018-09-17T01:29:54.150Z,0
2018-09-17T01:30:53.753Z,0
2018-09-17T01:31:53.799Z,0
2018-09-17T01:32:53.794Z,0
2018-09-17T01:33:53.778Z,0
2018-09-17T01:34:53.764Z,0
2018-09-17T01:35:54.101Z,0
2018-09-17T01:36:53.799Z,0
2018-09-17T01:37:53.773Z,0
2018-09-17T01:38:53.768Z,0
2018-09-17T01:44:10.038Z,0
2018-09-17T01:55:06.802Z,0
2018-09-17T01:55:19.132Z,0
2018-09-17T01:56:19.076Z,0
2018-09-17T01:57:19.051Z,0
2018-09-17T01:58:19.118Z,0
2018-09-17T01:59:19.494Z,0
2018-09-17T02:00:19.128Z,0
2018-09-17T02:01:19.142Z,0
2018-09-17T02:02:19.071Z,0
2018-09-17T02:03:19.153Z,0
2018-09-17T02:04:19.062Z,0
2018-09-17T02:05:21.486Z,0
2018-09-17T02:06:19.137Z,0
2018-09-17T02:07:19.166Z,0
2018-09-17T02:08:19.190Z,0
2018-09-17T02:09:19.327Z,0
2018-09-17T02:10:19.201Z,0
2018-09-17T02:11:23.368Z,0
2018-09-17T02:12:19.218Z,0
2018-09-17T02:13:19.223Z,0
2018-09-17T02:14:19.123Z,0
2018-09-17T02:15:19.129Z,0
2018-09-17T02:16:19.144Z,0
2018-09-17T02:17:22.797Z,0
2018-09-17T02:18:19.189Z,0
2018-09-17T02:19:19.096Z,0
2018-09-17T02:20:19.172Z,0
2018-09-17T02:21:19.169Z,0
2018-09-17T02:22:19.179Z,0
2018-09-17T02:23:19.476Z,0
2018-09-17T02:24:19.167Z,0
2018-09-17T02:25:19.196Z,0
2018-09-17T02:26:19.144Z,0
2018-09-17T02:27:19.199Z,0
2018-09-17T02:28:19.153Z,0
2018-09-17T02:29:19.486Z,0
2018-09-17T02:30:19.220Z,0
2018-09-17T02:31:19.153Z,0
2018-09-17T02:32:19.238Z,0
2018-09-17T02:33:19.206Z,0
2018-09-17T02:34:19.149Z,0
2018-09-17T02:35:20.566Z,0
2018-09-17T02:36:19.160Z,0
2018-09-17T02:37:19.212Z,0
2018-09-17T02:46:54.760Z,0
2018-09-17T02:47:07.182Z,0
2018-09-17T02:48:07.119Z,0
2018-09-17T02:49:07.138Z,0
2018-09-17T02:50:07.165Z,0
2018-09-17T02:51:07.397Z,0
2018-09-17T02:52:07.191Z,0
2018-09-17T02:53:07.149Z,0
2018-09-17T02:54:07.209Z,0
2018-09-17T02:55:07.182Z,0
2018-09-17T02:56:07.153Z,0
2018-09-17T02:57:07.471Z,0
2018-09-17T02:58:07.132Z,0
2018-09-17T02:59:07.140Z,0
2018-09-17T03:00:07.097Z,0
2018-09-17T03:01:07.104Z,0
2018-09-17T03:02:07.124Z,0
2018-09-17T03:03:07.434Z,0
2018-09-17T03:04:07.138Z,0
2018-09-17T03:05:07.137Z,0
2018-09-17T03:06:07.083Z,0
2018-09-17T03:07:07.084Z,0
2018-09-17T03:08:07.115Z,0
2018-09-17T03:09:09.621Z,0
2018-09-17T03:10:07.258Z,0
2018-09-17T03:11:07.473Z,0
2018-09-17T03:12:07.215Z,0
2018-09-17T03:13:07.377Z,0
2018-09-17T03:14:07.301Z,0
2018-09-17T03:15:07.545Z,0
2018-09-17T03:16:07.140Z,0
2018-09-17T03:17:07.221Z,0
2018-09-17T03:18:07.183Z,0
2018-09-17T03:19:08.965Z,0
2018-09-17T03:20:07.097Z,0
2018-09-17T03:21:07.719Z,0
2018-09-17T03:22:07.454Z,0
2018-09-17T03:23:07.252Z,0
2018-09-17T03:24:07.199Z,0
2018-09-17T03:25:07.914Z,0
2018-09-17T03:26:07.208Z,0
2018-09-17T03:27:07.841Z,0
2018-09-17T03:28:07.184Z,0
2018-09-17T03:29:07.233Z,0
2018-09-17T03:30:07.880Z,0
2018-09-17T03:31:07.214Z,0
2018-09-17T03:32:07.283Z,0
2018-09-17T03:33:07.524Z,0
2018-09-17T03:34:07.669Z,0
2018-09-17T03:35:07.162Z,0
2018-09-17T03:36:07.227Z,0
2018-09-17T03:37:07.800Z,0
2018-09-17T03:38:07.149Z,0
2018-09-17T03:39:07.842Z,0
2018-09-17T03:40:08.127Z,0
2018-09-17T03:41:07.458Z,0
2018-09-17T03:42:10.948Z,0
2018-09-17T03:43:07.163Z,0
2018-09-17T03:44:07.081Z,0
2018-09-17T03:45:07.243Z,0
2018-09-17T03:46:07.244Z,0
2018-09-17T03:47:07.227Z,0
2018-09-17T03:48:07.220Z,0
2018-09-17T03:49:07.219Z,0
2018-09-17T03:50:09.571Z,0
2018-09-17T03:51:08.090Z,0
2018-09-17T03:52:07.256Z,0
2018-09-17T03:53:07.553Z,0
2018-09-17T03:54:07.467Z,0
2018-09-17T03:55:08.037Z,0
2018-09-17T03:56:07.474Z,0
2018-09-17T03:57:07.773Z,0
2018-09-17T03:58:07.647Z,0
2018-09-17T03:59:07.582Z,0
2018-09-17T04:00:08.814Z,0
2018-09-17T04:01:07.541Z,0
2018-09-17T04:02:07.293Z,0
2018-09-17T04:03:07.621Z,0
2018-09-17T04:05:11.780Z,0
2018-09-17T04:05:24.083Z,0
2018-09-17T04:06:24.031Z,0
2018-09-17T04:07:24.115Z,0
2018-09-17T04:08:24.447Z,0
2018-09-17T04:09:24.076Z,0
2018-09-17T04:10:24.101Z,0
2018-09-17T04:11:24.119Z,0
2018-09-17T04:12:24.085Z,0
2018-09-17T04:13:24.062Z,0
2018-09-17T04:14:24.487Z,0
2018-09-17T04:15:24.072Z,0
2018-09-17T04:16:24.098Z,0
2018-09-17T04:17:24.118Z,0
2018-09-17T04:18:24.122Z,0
2018-09-17T04:19:24.074Z,0
2018-09-17T04:20:29.847Z,0
2018-09-17T04:21:24.143Z,0
2018-09-17T04:22:24.087Z,0
2018-09-17T04:23:24.140Z,0
2018-09-17T04:24:24.215Z,0
2018-09-17T04:25:24.236Z,0
2018-09-17T04:26:24.751Z,0
2018-09-17T04:27:24.480Z,0
2018-09-17T04:28:24.093Z,0
2018-09-17T04:29:24.205Z,0
2018-09-17T04:30:24.115Z,0
2018-09-17T04:31:24.118Z,0
2018-09-17T04:32:24.805Z,0
2018-09-17T04:33:24.200Z,0
2018-09-17T04:34:24.099Z,0
2018-09-17T04:35:24.143Z,0
2018-09-17T04:36:24.099Z,0
2018-09-17T04:46:01.679Z,4
2018-09-17T04:46:14.042Z,4
2018-09-17T04:47:13.975Z,4
2018-09-17T04:48:13.957Z,4
2018-09-17T04:49:13.920Z,4
2018-09-17T04:50:13.990Z,4
2018-09-17T04:51:14.387Z,8
2018-09-17T04:52:13.962Z,8
2018-09-17T04:53:13.993Z,8
2018-09-17T04:54:14.094Z,8
2018-09-17T04:55:14.267Z,12
2018-09-17T04:56:14.033Z,12
2018-09-17T04:57:14.411Z,12
2018-09-17T04:58:14.023Z,12
2018-09-17T04:59:15.188Z,12
2018-09-17T05:00:16.998Z,16
2018-09-17T05:01:14.342Z,16
2018-09-17T05:02:14.363Z,16
2018-09-17T05:03:14.664Z,20
2018-09-17T05:04:14.388Z,20
2018-09-17T05:05:14.086Z,24
2018-09-17T05:06:14.119Z,20
2018-09-17T05:07:14.742Z,24
2018-09-17T05:08:14.338Z,24
2018-09-17T05:09:14.264Z,28
2018-09-17T05:10:14.364Z,28
2018-09-17T05:11:13.974Z,32
2018-09-17T05:12:15.069Z,32
2018-09-17T05:13:14.305Z,36
2018-09-17T05:14:14.260Z,36
2018-09-17T05:15:14.473Z,40
2018-09-17T05:16:14.057Z,40
2018-09-17T05:17:13.973Z,44
2018-09-17T05:18:14.002Z,48
2018-09-17T05:19:14.330Z,52
2018-09-17T05:20:14.083Z,52
2018-09-17T05:21:14.374Z,52
2018-09-17T05:22:14.059Z,60
2018-09-17T05:23:14.063Z,60
2018-09-17T05:24:14.153Z,60
2018-09-17T05:25:14.215Z,64
2018-09-17T05:26:14.024Z,68
2018-09-17T05:27:14.409Z,68
2018-09-17T05:28:14.418Z,72
2018-09-17T05:29:14.139Z,76
2018-09-17T05:30:14.108Z,80
2018-09-17T05:31:14.062Z,84
2018-09-17T05:32:14.163Z,84
2018-09-17T05:33:14.493Z,88
2018-09-17T05:34:14.192Z,92
2018-09-17T05:35:14.539Z,96
2018-09-17T05:36:14.167Z,100
2018-09-17T05:37:14.349Z,104
2018-09-17T05:38:14.142Z,108
2018-09-17T05:39:16.565Z,108
2018-09-17T05:40:14.291Z,116
2018-09-17T05:41:14.150Z,116
2018-09-17T05:42:14.107Z,124
2018-09-17T05:43:14.095Z,124
2018-09-17T05:44:14.081Z,132
2018-09-17T05:45:14.583Z,132
2018-09-17T05:46:14.058Z,140
2018-09-17T05:47:14.173Z,140
2018-09-17T05:48:14.103Z,144
2018-09-17T05:49:14.074Z,148
2018-09-17T05:50:14.184Z,152
2018-09-17T05:51:14.495Z,156
2018-09-17T05:52:14.152Z,156
2018-09-17T05:53:14.111Z,160
2018-09-17T05:54:14.447Z,164
2018-09-17T05:55:14.205Z,168
2018-09-17T05:56:14.109Z,172
2018-09-17T05:57:14.410Z,172
2018-09-17T05:58:14.105Z,176
2018-09-17T05:59:14.150Z,180
2018-09-17T06:00:14.283Z,184
2018-09-17T06:01:14.270Z,188
2018-09-17T06:02:14.120Z,192
2018-09-17T06:03:14.450Z,196
2018-09-17T06:04:14.181Z,200
2018-09-17T06:05:14.500Z,208
2018-09-17T06:06:14.194Z,216
2018-09-17T06:07:14.474Z,224
2018-09-17T06:08:14.153Z,232
2018-09-17T06:09:14.411Z,244
2018-09-17T06:10:14.139Z,252
2018-09-17T06:11:14.253Z,272
2018-09-17T06:12:14.126Z,280
2018-09-17T06:13:14.109Z,288
2018-09-17T06:14:14.167Z,300
2018-09-17T06:15:15.440Z,328
2018-09-17T06:16:14.164Z,416
2018-09-17T06:17:15.403Z,616
2018-09-17T06:18:14.164Z,752
2018-09-17T06:19:14.215Z,796
2018-09-17T06:20:14.206Z,836
2018-09-17T06:21:14.563Z,876
2018-09-17T06:22:14.160Z,912
2018-09-17T06:23:14.227Z,952
2018-09-17T06:24:14.440Z,1000
2018-09-17T06:25:14.165Z,1044
2018-09-17T06:26:14.144Z,1084
2018-09-17T06:27:14.397Z,1060
2018-09-17T06:28:14.149Z,936
2018-09-17T06:29:14.165Z,692
2018-09-17T06:30:14.299Z,548
2018-09-17T06:31:14.117Z,732
2018-09-17T06:32:14.226Z,1036
2018-09-17T06:33:15.463Z,1156
2018-09-17T06:34:14.132Z,1220
2018-09-17T06:35:14.140Z,1240
2018-09-17T06:36:14.230Z,1312
2018-09-17T06:37:14.152Z,1352
2018-09-17T06:38:14.164Z,1372
2018-09-17T06:39:16.530Z,1408
2018-09-17T06:40:14.589Z,1436
2018-09-17T06:41:14.116Z,1476
2018-09-17T06:42:14.194Z,1504
2018-09-17T06:43:14.201Z,1540
2018-09-17T06:44:14.162Z,1548
2018-09-17T06:45:15.010Z,1592
2018-09-17T06:46:14.170Z,1656
2018-09-17T06:47:14.214Z,1692
2018-09-17T06:48:14.159Z,1708
2018-09-17T06:49:14.203Z,1740
2018-09-17T06:50:14.270Z,1748
2018-09-17T06:51:14.625Z,1804
2018-09-17T06:52:14.162Z,1840
2018-09-17T06:53:14.194Z,1916
2018-09-17T06:54:14.182Z,1960
2018-09-17T06:55:14.169Z,1964
2018-09-17T06:56:14.206Z,1968
2018-09-17T06:57:14.209Z,2004
2018-09-17T06:58:14.228Z,2052
2018-09-17T06:59:14.158Z,2100
2018-09-17T07:00:14.241Z,2144
2018-09-17T07:01:14.250Z,2184
2018-09-17T07:07:54.326Z,2428
2018-09-17T07:08:54.530Z,2452
2018-09-17T07:09:54.328Z,2464
2018-09-17T07:10:54.219Z,2504
2018-09-17T07:11:54.468Z,2488
2018-09-17T07:12:54.543Z,2504
2018-09-17T07:13:54.226Z,2564
2018-09-17T07:14:54.249Z,2572
2018-09-17T07:15:54.234Z,2540
2018-09-17T07:16:54.742Z,2548
2018-09-17T07:17:54.264Z,2552
2018-09-17T07:18:54.568Z,2552
2018-09-17T07:19:54.379Z,2572
2018-09-17T07:20:54.377Z,2640
2018-09-17T07:21:54.582Z,2660
2018-09-17T07:22:54.283Z,2680
2018-09-17T07:23:54.500Z,2700
2018-09-17T07:24:54.500Z,2684
2018-09-17T07:25:54.500Z,2684
2018-09-17T07:26:54.224Z,2700
2018-09-17T07:27:54.251Z,2704
2018-09-17T07:28:54.636Z,2688
2018-09-17T07:29:54.265Z,2664
2018-09-17T07:30:54.949Z,2664
2018-09-17T07:31:54.377Z,2712
2018-09-17T07:32:54.414Z,2704
2018-09-17T07:33:54.276Z,2704
2018-09-17T07:34:54.372Z,2692
2018-09-17T07:35:54.397Z,2720
2018-09-17T07:36:54.584Z,2712
2018-09-17T07:37:54.545Z,2696
2018-09-17T07:38:54.302Z,2696
2018-09-17T07:39:54.488Z,2684
2018-09-17T07:40:54.363Z,2680
2018-09-17T07:41:54.362Z,2656
2018-09-17T07:42:54.885Z,2580
2018-09-17T07:43:54.554Z,2608
2018-09-17T07:44:54.463Z,2604
2018-09-17T07:45:54.224Z,2568
2018-09-17T07:46:54.269Z,2528
2018-09-17T07:47:54.745Z,2504
2018-09-17T07:48:55.668Z,2480
2018-09-17T07:49:54.545Z,2452
2018-09-17T07:50:54.266Z,2424
2018-09-17T07:51:54.292Z,2388
2018-09-17T07:52:54.390Z,2368
2018-09-17T07:53:54.349Z,2328
2018-09-17T07:54:54.714Z,2288
2018-09-17T07:55:54.299Z,2256
2018-09-17T07:56:54.343Z,2232
2018-09-17T07:57:54.309Z,2208
2018-09-17T07:58:54.399Z,2184
2018-09-17T07:59:54.280Z,2152
2018-09-17T08:00:54.741Z,2100
2018-09-17T08:01:54.299Z,2052
2018-09-17T08:02:54.343Z,2004
2018-09-17T08:03:54.385Z,1952
2018-09-17T08:04:54.337Z,1908
2018-09-17T08:05:54.376Z,1872
2018-09-17T08:06:54.667Z,1844
2018-09-17T08:07:54.257Z,1808
2018-09-17T08:08:54.791Z,1776
2018-09-17T08:09:59.546Z,1736
2018-09-17T08:10:54.784Z,1704
2018-09-17T08:11:55.107Z,1680
2018-09-17T08:12:54.943Z,1652
2018-09-17T08:13:54.721Z,1624
2018-09-17T08:14:54.240Z,1592
2018-09-17T08:15:54.924Z,1564
2018-09-17T08:16:55.361Z,1544
2018-09-17T08:17:54.664Z,1512
2018-09-17T08:18:57.435Z,1488
2018-09-17T08:19:54.367Z,1464
2018-09-17T08:20:54.682Z,1444
2018-09-17T08:21:54.963Z,1424
2018-09-17T08:22:57.525Z,1400
2018-09-17T08:23:55.686Z,1384
2018-09-17T08:24:56.245Z,1368
2018-09-17T08:25:55.498Z,1356
2018-09-17T08:26:54.736Z,1344
2018-09-17T08:27:55.199Z,1328
2018-09-17T08:28:54.707Z,1320
2018-09-17T08:29:54.650Z,1308
2018-09-17T08:30:55.101Z,1304
2018-09-17T08:31:54.454Z,1292
2018-09-17T08:32:54.327Z,1292
2018-09-17T08:33:54.403Z,1288
2018-09-17T08:34:54.505Z,1284
2018-09-17T08:35:54.615Z,1284
2018-09-17T08:36:56.821Z,1276
2018-09-17T08:37:54.467Z,1276
2018-09-17T08:38:57.641Z,1276
2018-09-17T08:39:54.955Z,1276
2018-09-17T08:40:54.737Z,1280
2018-09-17T08:41:54.791Z,1288
2018-09-17T08:42:54.631Z,1284
2018-09-17T08:43:54.647Z,1280
2018-09-17T08:44:54.512Z,1280
2018-09-17T08:45:54.380Z,1276
2018-09-17T08:46:54.617Z,1276
2018-09-17T08:47:55.244Z,1284
2018-09-17T08:48:56.058Z,1292
2018-09-17T08:49:54.492Z,1288
2018-09-17T08:50:54.722Z,1288
2018-09-17T08:51:55.435Z,1296
2018-09-17T08:52:54.925Z,1300
2018-09-17T08:53:55.430Z,1300
2018-09-17T08:54:55.130Z,1312
2018-09-17T08:55:54.584Z,1316
2018-09-17T08:56:54.542Z,1332
2018-09-17T08:57:56.991Z,1340
2018-09-17T08:58:54.855Z,1352
2018-09-17T08:59:54.770Z,1364
2018-09-17T09:00:55.352Z,1380
2018-09-17T09:01:54.457Z,1400
2018-09-17T09:02:54.356Z,1424
2018-09-17T09:03:54.535Z,1452
2018-09-17T09:04:54.464Z,1476
2018-09-17T09:05:54.437Z,1504
2018-09-17T09:06:55.780Z,1532
2018-09-17T09:07:54.334Z,1556
2018-09-17T09:08:54.394Z,1588
2018-09-17T09:09:54.401Z,1608
2018-09-17T09:10:54.376Z,1648
2018-09-17T09:11:54.383Z,1704
2018-09-17T09:12:56.839Z,1760
2018-09-17T09:13:54.372Z,1808
2018-09-17T09:14:54.408Z,1832
2018-09-17T09:15:54.486Z,1836
2018-09-17T09:16:54.636Z,1816
2018-09-17T09:17:54.422Z,1784
2018-09-17T09:18:55.363Z,1756
2018-09-17T09:19:54.417Z,1728
2018-09-17T09:20:54.427Z,1708
2018-09-17T09:21:54.394Z,1708
2018-09-17T09:22:54.398Z,1696
2018-09-17T09:23:54.440Z,1660
2018-09-17T09:24:55.115Z,1616
2018-09-17T09:25:54.438Z,1584
2018-09-17T09:26:54.747Z,1556
2018-09-17T09:27:54.440Z,1536
2018-09-17T09:28:54.377Z,1520
2018-09-17T09:29:54.478Z,1500
2018-09-17T09:31:00.838Z,1476
2018-09-17T09:31:54.458Z,1448
2018-09-17T09:32:54.435Z,1416
2018-09-17T09:33:54.502Z,1392
2018-09-17T09:34:54.558Z,1368
2018-09-17T09:38:02.174Z,1328
2018-09-17T09:38:15.269Z,1324
2018-09-17T09:39:14.652Z,1320
2018-09-17T09:40:14.652Z,1308
2018-09-17T09:41:14.660Z,1304
2018-09-17T09:42:14.686Z,1300
2018-09-17T09:43:16.067Z,1296
2018-09-17T09:44:14.647Z,1296
2018-09-17T09:45:14.616Z,1304
2018-09-17T09:46:15.501Z,1300
2018-09-17T09:47:14.677Z,1304
2018-09-17T09:48:14.603Z,1300
2018-09-17T09:49:16.009Z,1300
2018-09-17T09:50:14.720Z,1300
2018-09-17T09:51:14.758Z,1296
2018-09-17T09:52:14.667Z,1300
2018-09-17T09:53:14.635Z,1300
2018-09-17T09:54:14.676Z,1304
2018-09-17T09:55:15.034Z,1300
2018-09-17T09:56:14.653Z,1304
2018-09-17T09:57:14.632Z,1304
2018-09-17T09:58:14.643Z,1308
2018-09-17T09:59:14.608Z,1296
2018-09-17T10:00:14.715Z,1288
2018-09-17T10:01:15.273Z,1304
2018-09-17T10:02:14.664Z,1308
2018-09-17T10:03:14.707Z,1308
2018-09-17T10:04:14.676Z,1304
2018-09-17T10:05:14.956Z,1308
2018-09-17T10:06:14.714Z,1304
2018-09-17T10:07:16.034Z,1300
2018-09-17T10:08:14.680Z,1304
2018-09-17T10:09:14.682Z,1300
2018-09-17T10:10:14.747Z,1300
2018-09-17T10:11:14.682Z,1300
2018-09-17T10:12:14.795Z,1308
2018-09-17T10:13:14.698Z,1304
2018-09-17T10:14:14.708Z,1308
2018-09-17T10:15:14.707Z,1312
2018-09-17T10:16:14.700Z,1316
2018-09-17T10:17:14.704Z,1312
2018-09-17T10:18:14.727Z,1312
2018-09-17T10:19:15.125Z,1316
2018-09-17T10:20:14.806Z,1316
2018-09-17T10:21:14.957Z,1316
2018-09-17T10:22:14.684Z,1312
2018-09-17T10:23:14.693Z,1304
2018-09-17T10:24:14.909Z,1312
2018-09-17T10:25:15.144Z,1308
2018-09-17T10:26:14.694Z,1304
2018-09-17T10:27:14.733Z,1308
2018-09-17T10:28:14.670Z,1308
2018-09-17T10:29:14.837Z,1320
2018-09-17T10:30:14.869Z,1324
2018-09-17T10:31:14.998Z,1320
2018-09-17T10:32:14.695Z,1320
2018-09-17T10:33:14.737Z,1320
2018-09-17T10:34:14.744Z,1316
2018-09-17T10:35:14.710Z,1316
2018-09-17T10:36:14.756Z,1316
2018-09-17T10:37:16.114Z,1308
2018-09-17T10:38:14.737Z,1308
2018-09-17T10:39:15.089Z,1308
2018-09-17T10:40:14.731Z,1304
2018-09-17T10:41:14.792Z,1312
2018-09-17T10:42:14.865Z,1308
2018-09-17T10:43:15.025Z,1312
2018-09-17T10:44:14.728Z,1308
2018-09-17T10:45:15.059Z,1308
2018-09-17T10:46:14.748Z,1308
2018-09-17T10:47:14.777Z,1312
2018-09-17T10:48:15.009Z,1320
2018-09-17T10:49:14.762Z,1332
2018-09-17T10:50:15.058Z,1328
2018-09-17T10:51:15.050Z,1332
2018-09-17T10:52:14.746Z,1340
2018-09-17T10:53:15.131Z,1344
2018-09-17T10:54:14.753Z,1344
2018-09-17T10:55:15.161Z,1360
2018-09-17T10:56:14.740Z,1352
2018-09-17T10:57:14.862Z,1356
2018-09-17T10:58:14.855Z,1360
2018-09-17T10:59:14.751Z,1368
2018-09-17T11:00:14.964Z,1384
2018-09-17T11:01:15.091Z,1392
2018-09-17T11:02:14.813Z,1392
2018-09-17T11:03:14.789Z,1356
2018-09-17T11:04:14.813Z,1296
2018-09-17T11:05:16.677Z,1252
2018-09-17T11:06:15.111Z,960
2018-09-17T11:07:15.060Z,1252
2018-09-17T11:08:15.020Z,1284
2018-09-17T11:09:14.764Z,1312
2018-09-17T11:10:14.795Z,1292
2018-09-17T11:11:14.820Z,1256
2018-09-17T11:16:30.953Z,1240
2018-09-17T11:16:43.173Z,1236
2018-09-17T11:17:43.366Z,1112
2018-09-17T11:18:43.207Z,1132
2018-09-17T11:19:43.217Z,1156
2018-09-17T11:20:43.506Z,1208
2018-09-17T11:21:43.251Z,1232
2018-09-17T11:22:43.252Z,1220
2018-09-17T11:23:43.210Z,1228
2018-09-17T11:24:43.386Z,1264
2018-09-17T11:25:43.210Z,1232
2018-09-17T11:26:43.566Z,1344
2018-09-17T11:27:43.203Z,1344
2018-09-17T11:28:43.226Z,1340
2018-09-17T11:29:43.264Z,1348
2018-09-17T11:30:43.331Z,1328
2018-09-17T11:31:43.276Z,1304
2018-09-17T11:32:43.583Z,1324
2018-09-17T11:38:01.053Z,1152
2018-09-17T11:38:13.404Z,1284
2018-09-17T11:39:13.627Z,1352
2018-09-17T11:40:13.328Z,1332
2018-09-17T11:41:13.506Z,1284
2018-09-17T11:42:13.599Z,1312
2018-09-17T11:43:13.408Z,1316
2018-09-17T11:44:13.359Z,1336
2018-09-17T11:45:13.595Z,1320
2018-09-17T11:46:13.330Z,1264
2018-09-17T11:47:13.376Z,1276
2018-09-17T11:48:13.485Z,1308
2018-09-17T11:49:13.304Z,1060
2018-09-17T11:56:40.166Z,852
2018-09-17T11:56:52.613Z,1004
2018-09-17T11:58:12.351Z,1000
2018-09-17T11:58:52.594Z,1012
2018-09-17T11:59:52.556Z,1032
2018-09-17T12:00:52.543Z,1076
2018-09-17T12:01:53.051Z,1120
2018-09-17T12:02:52.510Z,1104
2018-09-17T12:03:52.536Z,1084
2018-09-17T12:04:52.538Z,1104
2018-09-17T12:05:52.506Z,1072
2018-09-17T12:06:52.563Z,1048
2018-09-17T12:07:52.977Z,1008
2018-09-17T12:08:52.601Z,992
2018-09-17T12:09:52.487Z,1076
2018-09-17T12:10:52.574Z,1044
2018-09-17T12:11:52.538Z,1036
2018-09-17T12:12:52.554Z,948
2018-09-17T12:13:58.108Z,972
2018-09-17T12:14:52.562Z,980
2018-09-17T12:15:52.947Z,944
2018-09-17T12:16:52.531Z,944
2018-09-17T12:17:52.557Z,1040
2018-09-17T12:18:52.577Z,1108
2018-09-17T12:19:52.825Z,1160
2018-09-17T12:20:52.892Z,1124
2018-09-17T12:21:52.542Z,1100
2018-09-17T12:22:52.611Z,1108
2018-09-17T12:23:52.680Z,1136
2018-09-17T12:24:52.555Z,1172
2018-09-17T12:25:52.861Z,1176
2018-09-17T12:26:52.532Z,1196
2018-09-17T12:27:52.576Z,1200
2018-09-17T12:28:52.578Z,1196
2018-09-17T12:29:52.563Z,1204
2018-09-17T12:30:52.613Z,1216
2018-09-17T12:31:57.319Z,1212
2018-09-17T12:32:52.624Z,1208
2018-09-17T12:33:52.707Z,1212
2018-09-17T12:34:52.624Z,1204
2018-09-17T12:35:52.697Z,1200
2018-09-17T12:36:52.609Z,1180
2018-09-17T12:37:52.952Z,1156
2018-09-17T12:38:52.541Z,1148
2018-09-17T12:39:52.585Z,1128
2018-09-17T12:40:52.586Z,1112
2018-09-17T12:41:52.672Z,1076
2018-09-17T12:42:52.571Z,1024
2018-09-17T12:43:52.993Z,1004
2018-09-17T12:44:52.734Z,960
2018-09-17T12:45:53.026Z,1000
2018-09-17T12:46:52.653Z,964
2018-09-17T12:48:27.351Z,960
2018-09-17T12:48:52.677Z,952
2018-09-17T12:49:52.950Z,1016
2018-09-17T12:50:52.649Z,1068
2018-09-17T12:51:53.589Z,1088
2018-09-17T12:52:52.641Z,1092
2018-09-17T12:53:52.671Z,1108
2018-09-17T12:54:52.663Z,1112
2018-09-17T12:55:52.961Z,1104
2018-09-17T12:56:52.630Z,1116
2018-09-17T12:57:52.592Z,1120
2018-09-17T12:58:52.818Z,1100
2018-09-17T12:59:52.589Z,1080
2018-09-17T13:00:52.584Z,1076
2018-09-17T13:01:53.940Z,1084
2018-09-17T13:02:52.618Z,1088
2018-09-17T13:10:20.806Z,1072
2018-09-17T13:10:33.096Z,1064
2018-09-17T13:11:33.063Z,1080
2018-09-17T13:12:33.106Z,1080
2018-09-17T13:13:33.048Z,1076
2018-09-17T13:14:33.050Z,1068
2018-09-17T13:15:33.097Z,1068
2018-09-17T13:16:33.065Z,1076
2018-09-17T13:17:33.152Z,1080
2018-09-17T13:18:33.037Z,1072
2018-09-17T13:19:33.466Z,1080
2018-09-17T13:20:33.183Z,1072
2018-09-17T13:21:33.078Z,1072
2018-09-17T13:22:33.082Z,1092
2018-09-17T13:23:33.121Z,1064
2018-09-17T13:24:33.096Z,1072
2018-09-17T13:25:36.774Z,1064
2018-09-17T13:26:33.057Z,1060
2018-09-17T13:27:33.072Z,1048
2018-09-17T13:28:33.172Z,1064
2018-09-17T13:29:33.113Z,1068
2018-09-17T13:30:33.151Z,1060
2018-09-17T13:31:38.968Z,1032
2018-09-17T13:32:33.176Z,1032
2018-09-17T13:33:33.234Z,1024
2018-09-17T13:34:33.116Z,1020
2018-09-17T13:35:33.217Z,1028
2018-09-17T13:36:33.111Z,1032
2018-09-17T13:37:33.679Z,1024
2018-09-17T13:38:33.309Z,1000
2018-09-17T13:39:33.176Z,1000
2018-09-17T13:40:33.163Z,988
2018-09-17T13:41:33.220Z,988
2018-09-17T13:42:33.249Z,972
2018-09-17T13:43:34.537Z,968
2018-09-17T13:44:33.513Z,964
2018-09-17T13:45:33.269Z,952
2018-09-17T13:46:33.273Z,932
2018-09-17T13:47:33.211Z,936
2018-09-17T13:48:33.172Z,928
2018-09-17T13:49:33.573Z,944
2018-09-17T13:50:33.218Z,956
2018-09-17T13:51:33.308Z,956
2018-09-17T13:52:33.235Z,968
2018-09-17T13:53:33.449Z,968
2018-09-17T13:54:33.254Z,960
2018-09-17T13:55:33.732Z,960
2018-09-17T13:56:33.203Z,956
2018-09-17T13:57:33.335Z,960
2018-09-17T13:58:33.201Z,968
2018-09-17T13:59:33.275Z,944
2018-09-17T14:07:01.013Z,712
2018-09-17T14:07:13.534Z,724
2018-09-17T14:08:13.400Z,760
2018-09-17T14:09:13.420Z,820
2018-09-17T14:10:13.612Z,816
2018-09-17T14:11:13.406Z,804
2018-09-17T14:12:13.740Z,768
2018-09-17T14:13:13.393Z,716
2018-09-17T14:14:13.379Z,680
2018-09-17T14:15:13.391Z,684
2018-09-17T14:16:13.427Z,660
2018-09-17T14:17:13.423Z,692
2018-09-17T14:18:13.825Z,752
2018-09-17T14:19:13.411Z,792
2018-09-17T14:20:13.439Z,824
2018-09-17T14:21:13.944Z,820
2018-09-17T14:22:13.435Z,808
2018-09-17T14:23:13.629Z,788
2018-09-17T14:24:13.821Z,792
2018-09-17T14:25:13.420Z,800
2018-09-17T14:26:13.952Z,768
2018-09-17T14:27:13.537Z,764
2018-09-17T14:28:13.568Z,760
2018-09-17T14:29:13.469Z,748
2018-09-17T14:30:17.438Z,760
2018-09-17T14:31:13.454Z,772
2018-09-17T14:32:13.488Z,756
2018-09-17T14:33:13.534Z,760
2018-09-17T14:34:13.482Z,756
2018-09-17T14:35:13.545Z,748
2018-09-17T14:36:14.831Z,740
2018-09-17T14:37:13.517Z,736
2018-09-17T14:38:13.434Z,740
2018-09-17T14:39:13.502Z,740
2018-09-17T14:40:13.411Z,744
2018-09-17T14:41:13.566Z,732
2018-09-17T14:42:13.785Z,732
2018-09-17T14:43:13.525Z,720
2018-09-17T14:44:13.474Z,720
2018-09-17T14:45:13.491Z,708
2018-09-17T14:46:13.601Z,692
2018-09-17T14:49:21.073Z,668
2018-09-17T14:49:33.393Z,668
2018-09-17T14:50:33.449Z,656
2018-09-17T14:51:33.386Z,668
2018-09-17T14:52:33.532Z,664
2018-09-17T14:53:33.595Z,660
2018-09-17T14:54:34.010Z,648
2018-09-17T14:55:33.504Z,656
2018-09-17T14:56:33.451Z,644
2018-09-17T14:57:33.485Z,640
2018-09-17T14:58:33.571Z,600
2018-09-17T14:59:33.432Z,552
2018-09-17T15:00:34.774Z,592
2018-09-17T15:01:33.652Z,592
2018-09-17T15:02:33.501Z,528
2018-09-17T15:03:33.521Z,572
2018-09-17T15:04:33.574Z,576